sensor_id;sensor_type;location;lat;lon;timestamp;pressure;altitude;pressure_sealevel;temperature;humidity
5952;BME280;3001;42.622;23.194;2023-04-09T00:00:38;91406.88;;;6.65;100.00
5952;BME280;3001;42.622;23.194;2023-04-09T00:03:05;91408.66;;;6.70;100.00
5952;BME280;3001;42.622;23.194;2023-04-09T00:05:32;91404.78;;;6.67;100.00
5952;BME280;3001;42.622;23.194;2023-04-09T00:07:59;91411.91;;;6.80;100.00
5952;BME280;3001;42.622;23.194;2023-04-09T00:10:25;91415.47;;;6.84;100.00
5952;BME280;3001;42.622;23.194;2023-04-09T00:12:52;91418.22;;;6.92;100.00
5952;BME280;3001;42.622;23.194;2023-04-09T00:15:18;91419.63;;;7.03;100.00
5952;BME280;3001;42.622;23.194;2023-04-09T00:17:46;91421.13;;;7.09;100.00
5952;BME280;3001;42.622;23.194;2023-04-09T00:20:13;91422.84;;;7.14;100.00
5952;BME280;3001;42.622;23.194;2023-04-09T00:22:40;91433.72;;;7.16;100.00
5952;BME280;3001;42.622;23.194;2023-04-09T00:25:07;91418.44;;;6.96;100.00
5952;BME280;3001;42.622;23.194;2023-04-09T00:27:33;91425.31;;;7.05;100.00
5952;BME280;3001;42.622;23.194;2023-04-09T00:30:00;91430.25;;;7.25;100.00
5952;BME280;3001;42.622;23.194;2023-04-09T00:32:27;91425.34;;;7.00;100.00
5952;BME280;3001;42.622;23.194;2023-04-09T00:34:55;91425.59;;;7.22;100.00
5952;BME280;3001;42.622;23.194;2023-04-09T00:37:21;91418.97;;;7.35;100.00
5952;BME280;3001;42.622;23.194;2023-04-09T00:39:48;91430.84;;;7.17;100.00
5952;BME280;3001;42.622;23.194;2023-04-09T00:42:15;91421.97;;;7.23;100.00
5952;BME280;3001;42.622;23.194;2023-04-09T00:44:42;91413.88;;;7.30;99.91
5952;BME280;3001;42.622;23.194;2023-04-09T00:47:09;91423.66;;;7.33;99.63
5952;BME280;3001;42.622;23.194;2023-04-09T00:49:35;91419.28;;;7.10;100.00
5952;BME280;3001;42.622;23.194;2023-04-09T00:52:04;91412.91;;;7.44;100.00
5952;BME280;3001;42.622;23.194;2023-04-09T00:54:31;91423.66;;;7.33;100.00
5952;BME280;3001;42.622;23.194;2023-04-09T00:56:58;91419.78;;;7.35;100.00
5952;BME280;3001;42.622;23.194;2023-04-09T00:59:25;91424.53;;;7.47;100.00
5952;BME280;3001;42.622;23.194;2023-04-09T01:01:52;91425.25;;;7.52;100.00
5952;BME280;3001;42.622;23.194;2023-04-09T01:04:19;91423.63;;;7.75;100.00
5952;BME280;3001;42.622;23.194;2023-04-09T01:06:50;91436.22;;;7.81;100.00
5952;BME280;3001;42.622;23.194;2023-04-09T01:09:22;91430.34;;;7.76;100.00
5952;BME280;3001;42.622;23.194;2023-04-09T01:11:57;91427.84;;;7.89;100.00
5952;BME280;3001;42.622;23.194;2023-04-09T01:14:30;91429.00;;;8.15;98.71
5952;BME280;3001;42.622;23.194;2023-04-09T01:17:02;91429.09;;;8.10;98.83
5952;BME280;3001;42.622;23.194;2023-04-09T01:19:40;91434.59;;;8.04;99.82
5952;BME280;3001;42.622;23.194;2023-04-09T01:22:23;91419.50;;;8.11;97.64
5952;BME280;3001;42.622;23.194;2023-04-09T01:25:03;91432.94;;;8.31;97.48
5952;BME280;3001;42.622;23.194;2023-04-09T01:27:38;91431.44;;;8.44;97.43
5952;BME280;3001;42.622;23.194;2023-04-09T01:30:13;91431.09;;;8.32;97.55
5952;BME280;3001;42.622;23.194;2023-04-09T01:32:41;91432.94;;;8.31;97.83
5952;BME280;3001;42.622;23.194;2023-04-09T01:35:09;91436.09;;;8.28;97.94
5952;BME280;3001;42.622;23.194;2023-04-09T01:37:36;91432.38;;;8.34;96.82
5952;BME280;3001;42.622;23.194;2023-04-09T01:40:06;91433.25;;;8.43;96.23
5952;BME280;3001;42.622;23.194;2023-04-09T01:42:34;91425.56;;;8.38;96.88
5952;BME280;3001;42.622;23.194;2023-04-09T01:45:03;91431.31;;;8.35;97.06
5952;BME280;3001;42.622;23.194;2023-04-09T01:47:33;91428.53;;;8.45;97.28
5952;BME280;3001;42.622;23.194;2023-04-09T01:50:00;91432.19;;;8.44;96.02
5952;BME280;3001;42.622;23.194;2023-04-09T01:52:28;91434.28;;;8.42;96.15
5952;BME280;3001;42.622;23.194;2023-04-09T01:54:55;91433.13;;;8.35;95.86
5952;BME280;3001;42.622;23.194;2023-04-09T01:57:22;91430.81;;;8.33;96.43
5952;BME280;3001;42.622;23.194;2023-04-09T01:59:48;91426.63;;;8.37;97.15
5952;BME280;3001;42.622;23.194;2023-04-09T02:02:18;91422.13;;;8.43;97.76
5952;BME280;3001;42.622;23.194;2023-04-09T02:04:50;91428.50;;;8.32;98.64
5952;BME280;3001;42.622;23.194;2023-04-09T02:07:24;91429.19;;;8.37;98.42
5952;BME280;3001;42.622;23.194;2023-04-09T02:09:56;91431.44;;;8.44;97.88
5952;BME280;3001;42.622;23.194;2023-04-09T02:12:25;91429.00;;;8.65;95.00
5952;BME280;3001;42.622;23.194;2023-04-09T02:14:52;91434.56;;;8.72;93.85
5952;BME280;3001;42.622;23.194;2023-04-09T02:17:20;91434.16;;;8.65;93.92
5952;BME280;3001;42.622;23.194;2023-04-09T02:19:48;91428.88;;;8.57;95.01
5952;BME280;3001;42.622;23.194;2023-04-09T02:22:15;91426.19;;;8.62;94.01
5952;BME280;3001;42.622;23.194;2023-04-09T02:24:42;91428.66;;;8.53;93.11
5952;BME280;3001;42.622;23.194;2023-04-09T02:27:09;91428.63;;;8.40;92.94
5952;BME280;3001;42.622;23.194;2023-04-09T02:29:36;91415.38;;;8.10;93.45
5952;BME280;3001;42.622;23.194;2023-04-09T02:32:04;91424.97;;;7.91;93.76
5952;BME280;3001;42.622;23.194;2023-04-09T02:34:30;91424.25;;;7.67;94.74
5952;BME280;3001;42.622;23.194;2023-04-09T02:36:59;91422.22;;;7.82;94.59
5952;BME280;3001;42.622;23.194;2023-04-09T02:39:25;91418.47;;;7.56;95.42
5952;BME280;3001;42.622;23.194;2023-04-09T02:41:52;91419.59;;;7.50;95.76
5952;BME280;3001;42.622;23.194;2023-04-09T02:44:19;91409.09;;;7.42;95.64
5952;BME280;3001;42.622;23.194;2023-04-09T02:46:46;91413.97;;;7.25;95.63
5952;BME280;3001;42.622;23.194;2023-04-09T02:49:13;91412.41;;;7.05;95.91
5952;BME280;3001;42.622;23.194;2023-04-09T02:51:39;91408.25;;;7.04;96.18
5952;BME280;3001;42.622;23.194;2023-04-09T02:54:07;91410.47;;;6.92;96.85
5952;BME280;3001;42.622;23.194;2023-04-09T02:56:34;91418.47;;;6.91;97.65
5952;BME280;3001;42.622;23.194;2023-04-09T02:59:01;91411.94;;;6.98;98.21
5952;BME280;3001;42.622;23.194;2023-04-09T03:01:27;91411.50;;;7.15;97.12
5952;BME280;3001;42.622;23.194;2023-04-09T03:03:54;91407.31;;;6.95;94.99
5952;BME280;3001;42.622;23.194;2023-04-09T03:06:21;91402.81;;;6.82;94.69
5952;BME280;3001;42.622;23.194;2023-04-09T03:08:47;91406.63;;;6.67;95.19
5952;BME280;3001;42.622;23.194;2023-04-09T03:11:15;91401.41;;;6.43;96.61
5952;BME280;3001;42.622;23.194;2023-04-09T03:13:42;91398.94;;;6.33;97.14
5952;BME280;3001;42.622;23.194;2023-04-09T03:16:09;91402.41;;;6.19;98.25
5952;BME280;3001;42.622;23.194;2023-04-09T03:18:35;91405.34;;;6.36;97.39
5952;BME280;3001;42.622;23.194;2023-04-09T03:21:04;91378.75;;;6.12;97.53
5952;BME280;3001;42.622;23.194;2023-04-09T03:23:32;91380.53;;;6.16;97.83
5952;BME280;3001;42.622;23.194;2023-04-09T03:26:00;91398.47;;;6.26;97.03
5952;BME280;3001;42.622;23.194;2023-04-09T03:28:28;91399.28;;;6.22;97.35
5952;BME280;3001;42.622;23.194;2023-04-09T03:30:56;91396.88;;;6.30;96.61
5952;BME280;3001;42.622;23.194;2023-04-09T03:33:23;91394.94;;;6.17;96.75
5952;BME280;3001;42.622;23.194;2023-04-09T03:35:50;91398.09;;;6.09;97.50
5952;BME280;3001;42.622;23.194;2023-04-09T03:38:17;91401.16;;;6.11;97.48
5952;BME280;3001;42.622;23.194;2023-04-09T03:40:43;91400.19;;;6.07;97.15
5952;BME280;3001;42.622;23.194;2023-04-09T03:43:10;91401.16;;;6.11;97.22
5952;BME280;3001;42.622;23.194;2023-04-09T03:45:38;91402.94;;;6.16;97.19
5952;BME280;3001;42.622;23.194;2023-04-09T03:48:05;91404.78;;;6.15;97.34
5952;BME280;3001;42.622;23.194;2023-04-09T03:50:37;91403.44;;;6.18;97.55
5952;BME280;3001;42.622;23.194;2023-04-09T03:53:04;91404.28;;;6.13;97.55
5952;BME280;3001;42.622;23.194;2023-04-09T03:55:30;91409.66;;;6.17;97.25
5952;BME280;3001;42.622;23.194;2023-04-09T03:57:57;91407.66;;;6.09;97.73
5952;BME280;3001;42.622;23.194;2023-04-09T04:00:24;91415.66;;;6.07;97.85
5952;BME280;3001;42.622;23.194;2023-04-09T04:02:52;91417.19;;;6.08;98.03
5952;BME280;3001;42.622;23.194;2023-04-09T04:05:22;91413.56;;;6.09;98.39
5952;BME280;3001;42.622;23.194;2023-04-09T04:07:49;91410.72;;;6.11;98.47
5952;BME280;3001;42.622;23.194;2023-04-09T04:10:15;91413.06;;;6.07;98.50
5952;BME280;3001;42.622;23.194;2023-04-09T04:12:42;91413.56;;;6.09;97.88
5952;BME280;3001;42.622;23.194;2023-04-09T04:15:09;91409.94;;;6.10;97.39
5952;BME280;3001;42.622;23.194;2023-04-09T04:17:36;91414.91;;;6.02;98.16
5952;BME280;3001;42.622;23.194;2023-04-09T04:20:05;91415.94;;;6.01;98.48
5952;BME280;3001;42.622;23.194;2023-04-09T04:22:32;91416.59;;;5.78;99.28
5952;BME280;3001;42.622;23.194;2023-04-09T04:24:59;91414.56;;;5.80;100.00
5952;BME280;3001;42.622;23.194;2023-04-09T04:27:26;91416.09;;;5.81;100.00
5952;BME280;3001;42.622;23.194;2023-04-09T04:29:53;91414.59;;;6.08;100.00
5952;BME280;3001;42.622;23.194;2023-04-09T04:32:19;91409.94;;;6.15;99.81
5952;BME280;3001;42.622;23.194;2023-04-09T04:34:47;91418.59;;;6.24;100.00
5952;BME280;3001;42.622;23.194;2023-04-09T04:37:16;91414.38;;;6.38;99.58
5952;BME280;3001;42.622;23.194;2023-04-09T04:39:42;91410.47;;;6.41;99.87
5952;BME280;3001;42.622;23.194;2023-04-09T04:42:09;91413.88;;;6.65;98.85
5952;BME280;3001;42.622;23.194;2023-04-09T04:44:36;91414.44;;;6.57;99.97
5952;BME280;3001;42.622;23.194;2023-04-09T04:47:02;91415.78;;;6.78;99.28
5952;BME280;3001;42.622;23.194;2023-04-09T04:49:29;91417.53;;;6.82;99.65
5952;BME280;3001;42.622;23.194;2023-04-09T04:51:56;91417.16;;;6.93;100.00
5952;BME280;3001;42.622;23.194;2023-04-09T04:54:24;91409.03;;;7.05;100.00
5952;BME280;3001;42.622;23.194;2023-04-09T04:56:51;91409.34;;;7.22;100.00
5952;BME280;3001;42.622;23.194;2023-04-09T04:59:17;91418.72;;;7.36;100.00
5952;BME280;3001;42.622;23.194;2023-04-09T05:01:44;91404.00;;;7.55;100.00
5952;BME280;3001;42.622;23.194;2023-04-09T05:04:11;91405.53;;;7.75;100.00
5952;BME280;3001;42.622;23.194;2023-04-09T05:06:37;91415.41;;;7.91;99.86
5952;BME280;3001;42.622;23.194;2023-04-09T05:09:04;91404.84;;;7.88;100.00
5952;BME280;3001;42.622;23.194;2023-04-09T05:11:32;91411.91;;;8.01;99.25
5952;BME280;3001;42.622;23.194;2023-04-09T05:13:59;91409.22;;;8.24;98.75
5952;BME280;3001;42.622;23.194;2023-04-09T05:16:25;91410.59;;;8.17;99.02
5952;BME280;3001;42.622;23.194;2023-04-09T05:18:52;91419.69;;;8.33;97.64
5952;BME280;3001;42.622;23.194;2023-04-09T05:21:19;91429.31;;;8.46;96.51
5952;BME280;3001;42.622;23.194;2023-04-09T05:23:45;91426.84;;;8.54;96.54
5952;BME280;3001;42.622;23.194;2023-04-09T05:26:12;91420.47;;;8.33;97.83
5952;BME280;3001;42.622;23.194;2023-04-09T05:28:40;91420.91;;;8.53;97.07
5952;BME280;3001;42.622;23.194;2023-04-09T05:31:07;91423.44;;;8.58;96.85
5952;BME280;3001;42.622;23.194;2023-04-09T05:33:37;91420.75;;;8.77;95.77
5952;BME280;3001;42.622;23.194;2023-04-09T05:36:04;91420.78;;;8.90;95.62
5952;BME280;3001;42.622;23.194;2023-04-09T05:38:31;91429.69;;;8.84;95.65
5952;BME280;3001;42.622;23.194;2023-04-09T05:40:58;91421.03;;;8.75;96.01
5952;BME280;3001;42.622;23.194;2023-04-09T05:43:25;91432.94;;;8.76;96.57
5952;BME280;3001;42.622;23.194;2023-04-09T05:45:53;91426.53;;;8.87;96.41
5952;BME280;3001;42.622;23.194;2023-04-09T05:48:20;91431.22;;;8.85;97.17
5952;BME280;3001;42.622;23.194;2023-04-09T05:50:48;91427.88;;;8.98;97.04
5952;BME280;3001;42.622;23.194;2023-04-09T05:53:16;91423.84;;;8.92;97.11
5952;BME280;3001;42.622;23.194;2023-04-09T05:55:43;91427.09;;;8.84;97.23
5952;BME280;3001;42.622;23.194;2023-04-09T05:58:10;91428.06;;;9.02;96.29
5952;BME280;3001;42.622;23.194;2023-04-09T06:00:37;91430.78;;;9.10;94.98
5952;BME280;3001;42.622;23.194;2023-04-09T06:03:05;91434.09;;;8.97;95.17
5952;BME280;3001;42.622;23.194;2023-04-09T06:05:32;91444.69;;;9.14;93.84
5952;BME280;3001;42.622;23.194;2023-04-09T06:07:58;91432.78;;;9.27;92.00
5952;BME280;3001;42.622;23.194;2023-04-09T06:10:25;91438.16;;;9.17;92.08
5952;BME280;3001;42.622;23.194;2023-04-09T06:12:52;91441.53;;;9.31;90.43
5952;BME280;3001;42.622;23.194;2023-04-09T06:15:19;91440.28;;;9.15;91.79
5952;BME280;3001;42.622;23.194;2023-04-09T06:17:46;91448.16;;;9.23;91.77
5952;BME280;3001;42.622;23.194;2023-04-09T06:20:14;91442.38;;;9.40;90.73
5952;BME280;3001;42.622;23.194;2023-04-09T06:22:41;91449.47;;;9.34;91.09
5952;BME280;3001;42.622;23.194;2023-04-09T06:25:07;91452.97;;;9.43;91.48
5952;BME280;3001;42.622;23.194;2023-04-09T06:27:34;91455.03;;;9.68;91.35
5952;BME280;3001;42.622;23.194;2023-04-09T06:30:01;91458.38;;;9.69;92.20
5952;BME280;3001;42.622;23.194;2023-04-09T06:32:27;91459.38;;;9.73;92.31
5952;BME280;3001;42.622;23.194;2023-04-09T06:34:54;91460.13;;;9.73;92.57
5952;BME280;3001;42.622;23.194;2023-04-09T06:37:22;91458.09;;;9.84;91.83
5952;BME280;3001;42.622;23.194;2023-04-09T06:39:49;91461.13;;;9.99;91.43
5952;BME280;3001;42.622;23.194;2023-04-09T06:42:16;91459.69;;;10.07;90.77
5952;BME280;3001;42.622;23.194;2023-04-09T06:44:43;91464.88;;;10.07;90.51
5952;BME280;3001;42.622;23.194;2023-04-09T06:47:09;91466.03;;;10.14;89.94
5952;BME280;3001;42.622;23.194;2023-04-09T06:49:36;91462.47;;;10.10;89.80
5952;BME280;3001;42.622;23.194;2023-04-09T06:52:03;91466.50;;;10.16;90.43
5952;BME280;3001;42.622;23.194;2023-04-09T06:54:33;91464.44;;;10.27;91.08
5952;BME280;3001;42.622;23.194;2023-04-09T06:57:00;91461.22;;;10.21;91.45
5952;BME280;3001;42.622;23.194;2023-04-09T06:59:26;91465.97;;;10.27;91.46
5952;BME280;3001;42.622;23.194;2023-04-09T07:01:53;91468.06;;;10.39;90.75
5952;BME280;3001;42.622;23.194;2023-04-09T07:04:20;91471.97;;;10.50;89.39
5952;BME280;3001;42.622;23.194;2023-04-09T07:06:46;91463.31;;;10.54;88.67
5952;BME280;3001;42.622;23.194;2023-04-09T07:09:13;91467.50;;;10.64;87.26
5952;BME280;3001;42.622;23.194;2023-04-09T07:11:42;91469.72;;;10.57;87.21
5952;BME280;3001;42.622;23.194;2023-04-09T07:14:08;91469.72;;;10.57;87.93
5952;BME280;3001;42.622;23.194;2023-04-09T07:16:35;91460.75;;;10.63;88.48
5952;BME280;3001;42.622;23.194;2023-04-09T07:19:02;91457.16;;;10.72;88.73
5952;BME280;3001;42.622;23.194;2023-04-09T07:21:28;91471.91;;;10.85;87.42
5952;BME280;3001;42.622;23.194;2023-04-09T07:23:55;91472.81;;;10.89;87.72
5952;BME280;3001;42.622;23.194;2023-04-09T07:26:21;91470.00;;;10.99;88.35
5952;BME280;3001;42.622;23.194;2023-04-09T07:28:49;91474.72;;;10.97;85.96
5952;BME280;3001;42.622;23.194;2023-04-09T07:31:16;91471.88;;;11.07;85.69
5952;BME280;3001;42.622;23.194;2023-04-09T07:33:43;91476.81;;;11.17;84.28
5952;BME280;3001;42.622;23.194;2023-04-09T07:36:10;91478.50;;;11.22;85.35
5952;BME280;3001;42.622;23.194;2023-04-09T07:38:36;91464.19;;;11.33;83.01
5952;BME280;3001;42.622;23.194;2023-04-09T07:41:03;91467.69;;;11.28;83.45
5952;BME280;3001;42.622;23.194;2023-04-09T07:43:30;91470.00;;;11.30;84.40
5952;BME280;3001;42.622;23.194;2023-04-09T07:45:58;91467.22;;;11.26;84.80
5952;BME280;3001;42.622;23.194;2023-04-09T07:48:24;91467.59;;;11.11;84.02
5952;BME280;3001;42.622;23.194;2023-04-09T07:50:52;91473.16;;;11.18;84.02
5952;BME280;3001;42.622;23.194;2023-04-09T07:53:19;91475.09;;;11.13;83.82
5952;BME280;3001;42.622;23.194;2023-04-09T07:55:45;91479.66;;;11.07;82.41
5952;BME280;3001;42.622;23.194;2023-04-09T07:58:12;91476.06;;;10.95;83.82
5952;BME280;3001;42.622;23.194;2023-04-09T08:00:39;91473.28;;;10.83;83.26
5952;BME280;3001;42.622;23.194;2023-04-09T08:03:07;91480.09;;;10.79;84.13
5952;BME280;3001;42.622;23.194;2023-04-09T08:05:34;91478.03;;;10.89;85.81
5952;BME280;3001;42.622;23.194;2023-04-09T08:08:03;91479.69;;;10.85;85.32
5952;BME280;3001;42.622;23.194;2023-04-09T08:10:30;91476.72;;;11.00;84.96
5952;BME280;3001;42.622;23.194;2023-04-09T08:12:57;91479.00;;;10.93;84.19
5952;BME280;3001;42.622;23.194;2023-04-09T08:15:24;91485.94;;;11.06;84.59
5952;BME280;3001;42.622;23.194;2023-04-09T08:17:50;91482.69;;;11.01;86.19
5952;BME280;3001;42.622;23.194;2023-04-09T08:20:18;91481.38;;;11.12;84.82
5952;BME280;3001;42.622;23.194;2023-04-09T08:22:45;91483.94;;;11.03;84.94
5952;BME280;3001;42.622;23.194;2023-04-09T08:25:12;91477.72;;;11.13;85.33
5952;BME280;3001;42.622;23.194;2023-04-09T08:27:38;91485.09;;;11.19;85.91
5952;BME280;3001;42.622;23.194;2023-04-09T08:30:06;91478.09;;;11.28;85.17
5952;BME280;3001;42.622;23.194;2023-04-09T08:32:33;91478.75;;;11.42;81.05
5952;BME280;3001;42.622;23.194;2023-04-09T08:35:00;91478.25;;;11.62;78.19
5952;BME280;3001;42.622;23.194;2023-04-09T08:37:28;91474.75;;;11.67;80.14
5952;BME280;3001;42.622;23.194;2023-04-09T08:39:55;91475.47;;;12.14;80.98
5952;BME280;3001;42.622;23.194;2023-04-09T08:42:22;91466.44;;;12.37;79.47
5952;BME280;3001;42.622;23.194;2023-04-09T08:44:50;91468.75;;;12.39;77.19
5952;BME280;3001;42.622;23.194;2023-04-09T08:47:18;91465.53;;;12.67;75.98
5952;BME280;3001;42.622;23.194;2023-04-09T08:49:45;91469.06;;;12.54;72.22
5952;BME280;3001;42.622;23.194;2023-04-09T08:52:14;91471.03;;;12.57;73.08
5952;BME280;3001;42.622;23.194;2023-04-09T08:54:48;91462.31;;;12.70;74.97
5952;BME280;3001;42.622;23.194;2023-04-09T08:57:16;91470.25;;;12.74;74.92
5952;BME280;3001;42.622;23.194;2023-04-09T08:59:43;91471.94;;;12.87;71.33
5952;BME280;3001;42.622;23.194;2023-04-09T09:02:10;91468.88;;;12.76;71.44
5952;BME280;3001;42.622;23.194;2023-04-09T09:04:43;91472.41;;;12.80;69.01
5952;BME280;3001;42.622;23.194;2023-04-09T09:07:11;91471.34;;;12.73;70.16
5952;BME280;3001;42.622;23.194;2023-04-09T09:09:50;91465.03;;;12.65;70.92
5952;BME280;3001;42.622;23.194;2023-04-09T09:12:31;91464.13;;;12.70;71.40
5952;BME280;3001;42.622;23.194;2023-04-09T09:14:58;91468.59;;;12.52;69.72
5952;BME280;3001;42.622;23.194;2023-04-09T09:17:25;91460.63;;;12.57;72.66
5952;BME280;3001;42.622;23.194;2023-04-09T09:19:53;91457.56;;;12.72;74.10
5952;BME280;3001;42.622;23.194;2023-04-09T09:22:19;91463.66;;;12.85;74.62
5952;BME280;3001;42.622;23.194;2023-04-09T09:24:47;91458.63;;;12.97;75.35
5952;BME280;3001;42.622;23.194;2023-04-09T09:27:34;91450.75;;;13.14;75.60
5952;BME280;3001;42.622;23.194;2023-04-09T09:30:04;91457.63;;;13.27;75.41
5952;BME280;3001;42.622;23.194;2023-04-09T09:32:31;91455.03;;;13.18;74.35
5952;BME280;3001;42.622;23.194;2023-04-09T09:35:00;91456.47;;;13.07;74.68
5952;BME280;3001;42.622;23.194;2023-04-09T09:37:29;91454.31;;;13.01;75.85
5952;BME280;3001;42.622;23.194;2023-04-09T09:39:56;91450.91;;;13.09;75.39
5952;BME280;3001;42.622;23.194;2023-04-09T09:42:23;91452.78;;;13.08;75.13
5952;BME280;3001;42.622;23.194;2023-04-09T09:44:52;91459.78;;;13.16;74.32
5952;BME280;3001;42.622;23.194;2023-04-09T09:47:20;91452.78;;;13.08;72.53
5952;BME280;3001;42.622;23.194;2023-04-09T09:49:47;91465.63;;;13.13;68.90
5952;BME280;3001;42.622;23.194;2023-04-09T09:52:17;91456.63;;;12.94;70.72
5952;BME280;3001;42.622;23.194;2023-04-09T09:54:47;91450.63;;;12.85;72.44
5952;BME280;3001;42.622;23.194;2023-04-09T09:57:18;91452.47;;;12.76;73.73
5952;BME280;3001;42.622;23.194;2023-04-09T09:59:50;91466.13;;;12.81;71.90
5952;BME280;3001;42.622;23.194;2023-04-09T10:02:22;91459.09;;;12.65;71.82
5952;BME280;3001;42.622;23.194;2023-04-09T10:04:51;91455.13;;;12.59;70.97
5952;BME280;3001;42.622;23.194;2023-04-09T10:07:18;91459.09;;;12.65;70.66
5952;BME280;3001;42.622;23.194;2023-04-09T10:09:48;91459.38;;;12.63;70.80
5952;BME280;3001;42.622;23.194;2023-04-09T10:12:15;91451.44;;;12.60;73.54
5952;BME280;3001;42.622;23.194;2023-04-09T10:14:43;91451.41;;;12.77;72.90
5952;BME280;3001;42.622;23.194;2023-04-09T10:17:11;91445.25;;;12.81;74.43
5952;BME280;3001;42.622;23.194;2023-04-09T10:19:41;91451.88;;;12.87;72.87
5952;BME280;3001;42.622;23.194;2023-04-09T10:22:11;91454.59;;;12.82;72.94
5952;BME280;3001;42.622;23.194;2023-04-09T10:24:39;91456.94;;;12.92;72.45
5952;BME280;3001;42.622;23.194;2023-04-09T10:27:09;91458.31;;;12.98;70.79
5952;BME280;3001;42.622;23.194;2023-04-09T10:29:42;91455.97;;;13.05;71.72
5952;BME280;3001;42.622;23.194;2023-04-09T10:32:09;91457.84;;;12.96;72.45
5952;BME280;3001;42.622;23.194;2023-04-09T10:34:39;91454.44;;;13.13;68.91
5952;BME280;3001;42.622;23.194;2023-04-09T10:37:07;91451.25;;;12.82;69.60
5952;BME280;3001;42.622;23.194;2023-04-09T10:39:38;91455.06;;;12.76;70.74
5952;BME280;3001;42.622;23.194;2023-04-09T10:42:10;91451.88;;;12.70;73.06
5952;BME280;3001;42.622;23.194;2023-04-09T10:44:38;91460.28;;;12.76;75.18
5952;BME280;3001;42.622;23.194;2023-04-09T10:47:07;91458.28;;;12.81;76.41
5952;BME280;3001;42.622;23.194;2023-04-09T10:49:35;91456.94;;;12.75;79.04
5952;BME280;3001;42.622;23.194;2023-04-09T10:52:05;91454.50;;;12.70;80.37
5952;BME280;3001;42.622;23.194;2023-04-09T10:54:45;91451.88;;;12.87;79.89
5952;BME280;3001;42.622;23.194;2023-04-09T10:57:22;91457.53;;;12.89;79.48
5952;BME280;3001;42.622;23.194;2023-04-09T10:59:51;91457.22;;;12.74;81.96
5952;BME280;3001;42.622;23.194;2023-04-09T11:05:26;91450.47;;;12.81;82.81
5952;BME280;3001;42.622;23.194;2023-04-09T11:08:02;91454.59;;;12.82;83.70
5952;BME280;3001;42.622;23.194;2023-04-09T11:10:29;91448.03;;;12.76;83.72
5952;BME280;3001;42.622;23.194;2023-04-09T11:12:56;91453.41;;;12.80;83.51
5952;BME280;3001;42.622;23.194;2023-04-09T11:15:22;91455.22;;;12.79;84.02
5952;BME280;3001;42.622;23.194;2023-04-09T11:17:49;91449.41;;;12.65;84.06
5952;BME280;3001;42.622;23.194;2023-04-09T11:20:19;91447.59;;;12.57;85.42
5952;BME280;3001;42.622;23.194;2023-04-09T11:22:46;91448.66;;;12.56;85.98
5952;BME280;3001;42.622;23.194;2023-04-09T11:25:18;91444.69;;;12.67;86.68
5952;BME280;3001;42.622;23.194;2023-04-09T11:27:45;91442.53;;;12.69;85.98
5952;BME280;3001;42.622;23.194;2023-04-09T11:30:12;91452.47;;;12.84;80.89
5952;BME280;3001;42.622;23.194;2023-04-09T11:32:39;91441.91;;;12.72;80.99
5952;BME280;3001;42.622;23.194;2023-04-09T11:35:10;91442.25;;;12.37;80.62
5952;BME280;3001;42.622;23.194;2023-04-09T11:37:38;91434.56;;;12.40;81.82
5952;BME280;3001;42.622;23.194;2023-04-09T11:40:06;91431.50;;;12.47;82.30
5952;BME280;3001;42.622;23.194;2023-04-09T11:42:34;91442.25;;;12.37;79.00
5952;BME280;3001;42.622;23.194;2023-04-09T11:45:03;91441.94;;;12.38;78.43
5952;BME280;3001;42.622;23.194;2023-04-09T11:47:30;91434.88;;;12.47;79.34
5952;BME280;3001;42.622;23.194;2023-04-09T11:49:57;91435.78;;;12.60;82.39
5952;BME280;3001;42.622;23.194;2023-04-09T11:52:24;91435.28;;;12.83;79.65
5952;BME280;3001;42.622;23.194;2023-04-09T11:54:52;91433.16;;;12.94;79.43
5952;BME280;3001;42.622;23.194;2023-04-09T11:57:19;91431.75;;;13.05;76.67
5952;BME280;3001;42.622;23.194;2023-04-09T11:59:47;91431.59;;;13.10;76.16
5952;BME280;3001;42.622;23.194;2023-04-09T12:02:16;91437.88;;;13.09;74.85
5952;BME280;3001;42.622;23.194;2023-04-09T12:04:48;91425.75;;;13.04;75.84
5952;BME280;3001;42.622;23.194;2023-04-09T12:07:15;91428.69;;;13.11;74.29
5952;BME280;3001;42.622;23.194;2023-04-09T12:09:46;91426.38;;;13.10;74.68
5952;BME280;3001;42.622;23.194;2023-04-09T12:12:17;91424.69;;;13.05;74.17
5952;BME280;3001;42.622;23.194;2023-04-09T12:14:44;91426.22;;;13.06;75.52
5952;BME280;3001;42.622;23.194;2023-04-09T12:17:13;91428.53;;;12.99;76.27
5952;BME280;3001;42.622;23.194;2023-04-09T12:19:39;91424.22;;;13.03;76.40
5952;BME280;3001;42.622;23.194;2023-04-09T12:22:06;91430.97;;;13.04;76.42
5952;BME280;3001;42.622;23.194;2023-04-09T12:24:32;91426.38;;;13.01;75.18
5952;BME280;3001;42.622;23.194;2023-04-09T12:26:59;91429.88;;;13.14;73.48
5952;BME280;3001;42.622;23.194;2023-04-09T12:29:26;91427.78;;;12.99;76.01
5952;BME280;3001;42.622;23.194;2023-04-09T12:31:54;91429.78;;;12.93;76.46
5952;BME280;3001;42.622;23.194;2023-04-09T12:34:22;91420.44;;;12.75;75.64
5952;BME280;3001;42.622;23.194;2023-04-09T12:36:49;91423.19;;;12.87;76.11
5952;BME280;3001;42.622;23.194;2023-04-09T12:39:15;91416.91;;;12.80;76.09
5952;BME280;3001;42.622;23.194;2023-04-09T12:41:42;91423.94;;;13.05;76.88
5952;BME280;3001;42.622;23.194;2023-04-09T12:44:09;91428.41;;;12.79;75.89
5952;BME280;3001;42.622;23.194;2023-04-09T12:46:36;91422.31;;;12.66;77.18
5952;BME280;3001;42.622;23.194;2023-04-09T12:49:03;91421.69;;;12.61;78.75
5952;BME280;3001;42.622;23.194;2023-04-09T12:51:31;91423.22;;;12.53;78.57
5952;BME280;3001;42.622;23.194;2023-04-09T12:53:58;91421.38;;;12.54;79.32
5952;BME280;3001;42.622;23.194;2023-04-09T12:56:25;91423.41;;;12.31;81.53
5952;BME280;3001;42.622;23.194;2023-04-09T12:58:51;91411.75;;;12.37;80.07
5952;BME280;3001;42.622;23.194;2023-04-09T13:01:18;91417.28;;;12.27;80.79
5952;BME280;3001;42.622;23.194;2023-04-09T13:03:45;91419.69;;;12.07;82.50
5952;BME280;3001;42.622;23.194;2023-04-09T13:06:12;91416.63;;;11.97;84.73
5952;BME280;3001;42.622;23.194;2023-04-09T13:08:40;91406.53;;;11.87;84.82
5952;BME280;3001;42.622;23.194;2023-04-09T13:11:06;91403.28;;;11.73;86.67
5952;BME280;3001;42.622;23.194;2023-04-09T13:13:33;91406.00;;;11.59;86.92
5952;BME280;3001;42.622;23.194;2023-04-09T13:16:00;91401.13;;;11.75;88.25
5952;BME280;3001;42.622;23.194;2023-04-09T13:18:27;91404.81;;;11.74;89.63
5952;BME280;3001;42.622;23.194;2023-04-09T13:20:54;91400.69;;;11.81;88.89